JST4851 YMML-YSSY
Flight info
| Callsign | JST4851 |
|---|---|
| Flight time | 1h 3m |
| Altitude | 35000 |
| Route | DOSEL2/34 DOSEL Y59 TESAT |
| Aircraft | A321/M-SDE3FGHIRWY/LB1 |
Departure
| Time | 2026-05-04 11:08 |
|---|---|
| Airport | Melbourne Airport (YMML) |
Arrival
| Time | 2026-05-04 12:12 |
|---|---|
| Airport | Sydney Kingsford Smith International Airport (YSSY) |
| Time | Latitude | Longitude | Altitude | Speed | Heading |
|---|---|---|---|---|---|
| 2026-05-04 09:51 | -37.67260 | 144.84659 | 386 ft | 0 kts | 172° |
| 2026-05-04 09:53 | -37.67266 | 144.84661 | 386 ft | 0 kts | 172° |
| 2026-05-04 10:42 | -37.67254 | 144.84658 | 386 ft | 4 kts | 173° |
| 2026-05-04 10:42 | -37.67227 | 144.84656 | 387 ft | 4 kts | 182° |
| 2026-05-04 10:42 | -37.67202 | 144.84662 | 387 ft | 4 kts | 220° |
| 2026-05-04 10:43 | -37.67194 | 144.84675 | 388 ft | 0 kts | 262° |
| 2026-05-04 10:49 | -37.67195 | 144.84663 | 387 ft | 3 kts | 262° |
| 2026-05-04 10:49 | -37.67200 | 144.84623 | 387 ft | 6 kts | 261° |
| 2026-05-04 10:50 | -37.67208 | 144.84556 | 386 ft | 9 kts | 261° |
| 2026-05-04 10:51 | -37.67221 | 144.84149 | 379 ft | 0 kts | 263° |
| 2026-05-04 10:54 | -37.67394 | 144.84095 | 374 ft | 16 kts | 172° |
| 2026-05-04 10:54 | -37.67513 | 144.84117 | 370 ft | 19 kts | 171° |
| 2026-05-04 10:56 | -37.67716 | 144.84156 | 367 ft | 2 kts | 171° |
| 2026-05-04 10:56 | -37.67742 | 144.84161 | 364 ft | 5 kts | 171° |
| 2026-05-04 10:56 | -37.67756 | 144.84164 | 365 ft | 0 kts | 171° |
| 2026-05-04 10:58 | -37.67771 | 144.84167 | 363 ft | 4 kts | 171° |
| 2026-05-04 10:59 | -37.67797 | 144.84172 | 363 ft | 3 kts | 172° |
| 2026-05-04 10:59 | -37.67799 | 144.84172 | 362 ft | 0 kts | 172° |
| 2026-05-04 11:01 | -37.67865 | 144.84137 | 359 ft | 5 kts | 245° |
| 2026-05-04 11:02 | -37.67871 | 144.84118 | 362 ft | 0 kts | 252° |
| 2026-05-04 11:05 | -37.67883 | 144.84042 | 359 ft | 9 kts | 259° |
| 2026-05-04 11:06 | -37.67861 | 144.83972 | 363 ft | 11 kts | 328° |
| 2026-05-04 11:06 | -37.67652 | 144.83927 | 364 ft | 63 kts | 352° |
| 2026-05-04 11:06 | -37.66995 | 144.83805 | 387 ft | 125 kts | 352° |
| 2026-05-04 11:06 | -37.66028 | 144.83623 | 688 ft | 148 kts | 350° |
| 2026-05-04 11:08 | -37.57096 | 144.83471 | 3454 ft | 261 kts | 20° |
| 2026-05-04 11:10 | -37.45058 | 144.90828 | 8264 ft | 288 kts | 24° |
| 2026-05-04 11:12 | -37.35307 | 145.06445 | 11563 ft | 363 kts | 52° |
| 2026-05-04 11:12 | -37.33839 | 145.09050 | 12164 ft | 366 kts | 51° |
| 2026-05-04 11:12 | -37.32350 | 145.11684 | 12770 ft | 369 kts | 51° |
| 2026-05-04 11:12 | -37.30871 | 145.14295 | 13365 ft | 373 kts | 51° |
| 2026-05-04 11:13 | -37.29356 | 145.16964 | 13953 ft | 376 kts | 51° |
| 2026-05-04 11:13 | -37.27830 | 145.19649 | 14490 ft | 378 kts | 51° |
| 2026-05-04 11:13 | -37.26294 | 145.22350 | 15021 ft | 381 kts | 51° |
| 2026-05-04 11:13 | -37.24742 | 145.25080 | 15573 ft | 384 kts | 51° |
| 2026-05-04 11:14 | -37.23186 | 145.27816 | 16113 ft | 386 kts | 51° |
| 2026-05-04 11:14 | -37.21633 | 145.30541 | 16640 ft | 388 kts | 51° |
| 2026-05-04 11:14 | -37.20054 | 145.33312 | 17166 ft | 391 kts | 51° |
| 2026-05-04 11:16 | -37.09250 | 145.52187 | 20275 ft | 407 kts | 50° |
| 2026-05-04 11:16 | -37.07606 | 145.55042 | 20698 ft | 409 kts | 50° |
| 2026-05-04 11:16 | -37.05933 | 145.57944 | 21127 ft | 411 kts | 50° |
| 2026-05-04 11:17 | -37.04252 | 145.60869 | 21543 ft | 413 kts | 50° |
| 2026-05-04 11:17 | -37.02589 | 145.63762 | 21952 ft | 415 kts | 50° |
| 2026-05-04 11:19 | -36.90507 | 145.84672 | 24574 ft | 431 kts | 49° |
| 2026-05-04 11:19 | -36.88766 | 145.87676 | 24888 ft | 433 kts | 47° |
| 2026-05-04 11:19 | -36.86989 | 145.90734 | 25186 ft | 435 kts | 47° |
| 2026-05-04 11:19 | -36.85199 | 145.93812 | 25495 ft | 438 kts | 47° |
| 2026-05-04 11:20 | -36.83398 | 145.96902 | 25816 ft | 440 kts | 47° |
| 2026-05-04 11:20 | -36.81612 | 145.99960 | 26125 ft | 441 kts | 46° |
| 2026-05-04 11:20 | -36.79792 | 146.03077 | 26403 ft | 444 kts | 46° |
| 2026-05-04 11:20 | -36.77961 | 146.06210 | 26694 ft | 446 kts | 46° |
| 2026-05-04 11:22 | -36.64994 | 146.28381 | 28712 ft | 460 kts | 44° |
| 2026-05-04 11:22 | -36.63096 | 146.31614 | 28966 ft | 462 kts | 44° |
| 2026-05-04 11:23 | -36.61191 | 146.34850 | 29237 ft | 462 kts | 44° |
| 2026-05-04 11:23 | -36.59286 | 146.38075 | 29523 ft | 463 kts | 44° |
| 2026-05-04 11:24 | -36.47710 | 146.57682 | 30681 ft | 475 kts | 44° |
| 2026-05-04 11:25 | -36.45767 | 146.60963 | 30846 ft | 477 kts | 44° |
| 2026-05-04 11:25 | -36.43797 | 146.64287 | 31072 ft | 476 kts | 44° |
| 2026-05-04 11:25 | -36.41825 | 146.67602 | 31281 ft | 477 kts | 44° |
| 2026-05-04 11:26 | -36.37893 | 146.74197 | 31730 ft | 477 kts | 44° |
| 2026-05-04 11:27 | -36.24023 | 146.97424 | 33175 ft | 479 kts | 44° |
| 2026-05-04 11:28 | -36.22029 | 147.00746 | 33352 ft | 479 kts | 44° |
| 2026-05-04 11:28 | -36.20028 | 147.04074 | 33545 ft | 480 kts | 44° |
| 2026-05-04 11:28 | -36.18056 | 147.07351 | 33743 ft | 480 kts | 44° |
| 2026-05-04 11:28 | -36.16058 | 147.10672 | 33933 ft | 480 kts | 44° |
| 2026-05-04 11:29 | -36.14058 | 147.14001 | 34113 ft | 480 kts | 45° |
| 2026-05-04 11:29 | -36.12068 | 147.17312 | 34313 ft | 479 kts | 45° |
| 2026-05-04 11:29 | -36.10090 | 147.20594 | 34490 ft | 479 kts | 45° |
| 2026-05-04 11:29 | -36.08093 | 147.23898 | 34668 ft | 479 kts | 44° |
| 2026-05-04 11:31 | -35.94116 | 147.46944 | 35095 ft | 475 kts | 44° |
| 2026-05-04 11:33 | -35.80220 | 147.69720 | 35111 ft | 475 kts | 44° |
| 2026-05-04 11:33 | -35.76253 | 147.76190 | 35110 ft | 475 kts | 44° |
| 2026-05-04 11:34 | -35.72270 | 147.82668 | 35119 ft | 475 kts | 44° |
| 2026-05-04 11:34 | -35.68265 | 147.89176 | 35127 ft | 476 kts | 44° |
| 2026-05-04 11:35 | -35.64276 | 147.95649 | 35112 ft | 476 kts | 44° |
| 2026-05-04 11:35 | -35.60286 | 148.02114 | 35121 ft | 476 kts | 44° |
| 2026-05-04 11:36 | -35.56261 | 148.08627 | 35130 ft | 476 kts | 44° |
| 2026-05-04 11:36 | -35.52244 | 148.15106 | 35135 ft | 476 kts | 44° |
| 2026-05-04 11:37 | -35.48242 | 148.21545 | 35104 ft | 477 kts | 43° |
| 2026-05-04 11:37 | -35.44215 | 148.28016 | 35125 ft | 476 kts | 43° |
| 2026-05-04 11:38 | -35.40202 | 148.34456 | 35138 ft | 477 kts | 43° |
| 2026-05-04 11:38 | -35.36168 | 148.40917 | 35117 ft | 476 kts | 43° |
| 2026-05-04 11:39 | -35.32148 | 148.47347 | 35132 ft | 477 kts | 43° |
| 2026-05-04 11:41 | -35.18004 | 148.69864 | 35130 ft | 476 kts | 43° |
| 2026-05-04 11:41 | -35.13974 | 148.76253 | 35128 ft | 476 kts | 43° |
| 2026-05-04 11:42 | -35.09916 | 148.82669 | 35137 ft | 476 kts | 43° |
| 2026-05-04 11:42 | -35.05884 | 148.89037 | 35117 ft | 476 kts | 43° |
| 2026-05-04 11:43 | -35.01822 | 148.95432 | 35127 ft | 476 kts | 43° |
| 2026-05-04 11:43 | -34.97786 | 149.01784 | 35134 ft | 476 kts | 43° |
| 2026-05-04 11:44 | -34.93727 | 149.08172 | 35036 ft | 474 kts | 43° |
| 2026-05-04 11:44 | -34.91711 | 149.11343 | 34618 ft | 470 kts | 43° |
| 2026-05-04 11:44 | -34.89728 | 149.14450 | 34073 ft | 468 kts | 43° |
| 2026-05-04 11:44 | -34.87727 | 149.17580 | 33526 ft | 465 kts | 43° |
| 2026-05-04 11:45 | -34.85744 | 149.20682 | 33020 ft | 462 kts | 43° |
| 2026-05-04 11:45 | -34.83741 | 149.23801 | 32499 ft | 474 kts | 43° |
| 2026-05-04 11:45 | -34.81703 | 149.26957 | 31961 ft | 481 kts | 43° |
| 2026-05-04 11:45 | -34.79642 | 149.30167 | 31423 ft | 479 kts | 43° |
| 2026-05-04 11:46 | -34.77602 | 149.33362 | 30901 ft | 474 kts | 43° |
| 2026-05-04 11:46 | -34.75586 | 149.36523 | 30334 ft | 470 kts | 43° |
| 2026-05-04 11:46 | -34.73716 | 149.39737 | 29828 ft | 473 kts | 51° |
| 2026-05-04 11:46 | -34.72144 | 149.43277 | 29353 ft | 474 kts | 53° |
| 2026-05-04 11:47 | -34.70616 | 149.46803 | 28877 ft | 470 kts | 53° |
| 2026-05-04 11:47 | -34.69095 | 149.50307 | 28404 ft | 466 kts | 53° |
| 2026-05-04 11:47 | -34.67581 | 149.53775 | 27956 ft | 462 kts | 53° |
| 2026-05-04 11:47 | -34.66070 | 149.57222 | 27509 ft | 458 kts | 53° |
| 2026-05-04 11:48 | -34.64595 | 149.60584 | 27039 ft | 454 kts | 53° |
| 2026-05-04 11:48 | -34.63112 | 149.63964 | 26652 ft | 448 kts | 53° |
| 2026-05-04 11:48 | -34.61665 | 149.67274 | 26370 ft | 436 kts | 53° |
| 2026-05-04 11:48 | -34.60251 | 149.70509 | 25846 ft | 432 kts | 53° |
| 2026-05-04 11:49 | -34.58854 | 149.73692 | 25362 ft | 428 kts | 53° |
| 2026-05-04 11:49 | -34.57455 | 149.76874 | 24941 ft | 424 kts | 53° |
| 2026-05-04 11:49 | -34.56068 | 149.80021 | 24512 ft | 421 kts | 53° |
| 2026-05-04 11:49 | -34.54704 | 149.83109 | 24115 ft | 416 kts | 53° |
| 2026-05-04 11:50 | -34.53366 | 149.86159 | 23794 ft | 405 kts | 53° |
| 2026-05-04 11:50 | -34.52033 | 149.89180 | 23151 ft | 404 kts | 53° |
| 2026-05-04 11:50 | -34.50714 | 149.92162 | 22793 ft | 396 kts | 53° |
| 2026-05-04 11:50 | -34.49429 | 149.95067 | 22325 ft | 392 kts | 53° |
| 2026-05-04 11:51 | -34.48143 | 149.97977 | 21904 ft | 388 kts | 53° |
| 2026-05-04 11:51 | -34.46872 | 150.00855 | 21485 ft | 385 kts | 53° |
| 2026-05-04 11:51 | -34.45622 | 150.03683 | 21072 ft | 383 kts | 53° |
| 2026-05-04 11:51 | -34.44366 | 150.06520 | 20641 ft | 379 kts | 53° |
| 2026-05-04 11:52 | -34.43116 | 150.09334 | 20229 ft | 376 kts | 53° |
| 2026-05-04 11:52 | -34.41875 | 150.12121 | 19818 ft | 375 kts | 53° |
| 2026-05-04 11:52 | -34.40642 | 150.14893 | 19399 ft | 372 kts | 53° |
| 2026-05-04 11:52 | -34.39421 | 150.17638 | 18966 ft | 368 kts | 54° |
| 2026-05-04 11:53 | -34.38202 | 150.20364 | 18568 ft | 366 kts | 54° |
| 2026-05-04 11:53 | -34.37012 | 150.23023 | 18143 ft | 362 kts | 54° |
| 2026-05-04 11:53 | -34.35814 | 150.25702 | 17727 ft | 360 kts | 54° |
| 2026-05-04 11:53 | -34.34625 | 150.28364 | 17326 ft | 358 kts | 54° |
| 2026-05-04 11:55 | -34.26481 | 150.46596 | 14520 ft | 344 kts | 55° |
| 2026-05-04 11:55 | -34.25369 | 150.49093 | 14144 ft | 339 kts | 55° |
| 2026-05-04 11:56 | -34.24254 | 150.51599 | 13746 ft | 336 kts | 55° |
| 2026-05-04 11:56 | -34.23143 | 150.54086 | 13344 ft | 334 kts | 55° |
| 2026-05-04 11:56 | -34.22049 | 150.56524 | 12957 ft | 332 kts | 55° |
| 2026-05-04 11:56 | -34.20948 | 150.58973 | 12584 ft | 331 kts | 55° |
| 2026-05-04 11:57 | -34.19852 | 150.61407 | 12201 ft | 329 kts | 55° |
| 2026-05-04 11:57 | -34.18759 | 150.63833 | 11835 ft | 327 kts | 55° |
| 2026-05-04 11:57 | -34.17673 | 150.66250 | 11458 ft | 325 kts | 56° |
| 2026-05-04 11:57 | -34.16610 | 150.68617 | 11094 ft | 323 kts | 56° |
| 2026-05-04 11:58 | -34.15541 | 150.70996 | 10720 ft | 321 kts | 56° |
| 2026-05-04 11:58 | -34.14480 | 150.73355 | 10347 ft | 316 kts | 56° |
| 2026-05-04 11:58 | -34.13434 | 150.75677 | 10050 ft | 309 kts | 56° |
| 2026-05-04 11:58 | -34.12441 | 150.77888 | 9861 ft | 299 kts | 56° |
| 2026-05-04 11:59 | -34.11451 | 150.80080 | 9469 ft | 296 kts | 56° |
| 2026-05-04 11:59 | -34.10464 | 150.82257 | 9094 ft | 293 kts | 56° |
| 2026-05-04 11:59 | -34.09491 | 150.84407 | 8788 ft | 290 kts | 56° |
| 2026-05-04 11:59 | -34.08522 | 150.86553 | 8522 ft | 291 kts | 56° |
| 2026-05-04 12:00 | -34.07881 | 150.87979 | 8336 ft | 290 kts | 56° |
| 2026-05-04 12:00 | -34.06609 | 150.90811 | 7970 ft | 289 kts | 56° |
| 2026-05-04 12:00 | -34.05959 | 150.92256 | 7789 ft | 289 kts | 56° |
| 2026-05-04 12:00 | -34.05010 | 150.94363 | 7510 ft | 289 kts | 57° |
| 2026-05-04 12:01 | -34.04051 | 150.96511 | 7238 ft | 290 kts | 59° |
| 2026-05-04 12:01 | -34.03475 | 150.98856 | 6956 ft | 296 kts | 82° |
| 2026-05-04 12:02 | -34.11487 | 151.08635 | 6012 ft | 292 kts | 171° |
| 2026-05-04 12:03 | -34.13481 | 151.09151 | 6008 ft | 292 kts | 172° |
| 2026-05-04 12:03 | -34.15478 | 151.09667 | 6009 ft | 292 kts | 171° |
| 2026-05-04 12:03 | -34.17469 | 151.10181 | 6007 ft | 292 kts | 171° |
| 2026-05-04 12:03 | -34.19460 | 151.10698 | 6008 ft | 293 kts | 171° |
| 2026-05-04 12:04 | -34.21420 | 151.11289 | 6006 ft | 295 kts | 160° |
| 2026-05-04 12:04 | -34.23132 | 151.12679 | 6008 ft | 299 kts | 133° |
| 2026-05-04 12:04 | -34.24201 | 151.14816 | 5858 ft | 297 kts | 106° |
| 2026-05-04 12:04 | -34.24586 | 151.17258 | 5461 ft | 294 kts | 94° |
| 2026-05-04 12:05 | -34.24514 | 151.19626 | 5292 ft | 278 kts | 70° |
| 2026-05-04 12:05 | -34.23633 | 151.21579 | 5166 ft | 255 kts | 40° |
| 2026-05-04 12:05 | -34.22221 | 151.22694 | 5010 ft | 235 kts | 17° |
| 2026-05-04 12:05 | -34.20749 | 151.23367 | 4796 ft | 225 kts | 13° |
| 2026-05-04 12:06 | -34.19273 | 151.23980 | 4469 ft | 220 kts | 11° |
| 2026-05-04 12:06 | -34.17821 | 151.23984 | 4143 ft | 204 kts | 334° |
| 2026-05-04 12:06 | -34.16552 | 151.23290 | 3951 ft | 199 kts | 339° |
| 2026-05-04 12:06 | -34.15249 | 151.22934 | 3723 ft | 189 kts | 345° |
| 2026-05-04 12:07 | -34.13970 | 151.22621 | 3486 ft | 185 kts | 345° |
| 2026-05-04 12:07 | -34.12715 | 151.22301 | 3235 ft | 182 kts | 343° |
| 2026-05-04 12:07 | -34.11488 | 151.21983 | 2997 ft | 181 kts | 343° |
| 2026-05-04 12:07 | -34.10279 | 151.21669 | 2758 ft | 173 kts | 343° |
| 2026-05-04 12:08 | -34.09137 | 151.21373 | 2547 ft | 160 kts | 344° |
| 2026-05-04 12:08 | -34.08087 | 151.21100 | 2338 ft | 149 kts | 344° |
| 2026-05-04 12:08 | -34.07109 | 151.20845 | 2146 ft | 142 kts | 344° |
| 2026-05-04 12:08 | -34.06144 | 151.20593 | 1962 ft | 141 kts | 345° |
| 2026-05-04 12:09 | -34.05195 | 151.20345 | 1779 ft | 140 kts | 345° |
| 2026-05-04 12:09 | -34.04239 | 151.20096 | 1595 ft | 140 kts | 346° |
| 2026-05-04 12:09 | -34.03283 | 151.19848 | 1407 ft | 139 kts | 345° |
| 2026-05-04 12:09 | -34.02346 | 151.19604 | 1220 ft | 140 kts | 347° |
| 2026-05-04 12:10 | -34.01393 | 151.19356 | 1029 ft | 140 kts | 347° |
| 2026-05-04 12:10 | -34.00440 | 151.19109 | 846 ft | 141 kts | 348° |
| 2026-05-04 12:10 | -33.99500 | 151.18864 | 658 ft | 137 kts | 350° |
| 2026-05-04 12:10 | -33.98552 | 151.18621 | 472 ft | 140 kts | 350° |
| 2026-05-04 12:11 | -33.97589 | 151.18370 | 287 ft | 141 kts | 349° |
| 2026-05-04 12:11 | -33.96629 | 151.18121 | 122 ft | 141 kts | 345° |
| 2026-05-04 12:11 | -33.95700 | 151.17877 | 22 ft | 124 kts | 347° |
| 2026-05-04 12:11 | -33.95018 | 151.17700 | 20 ft | 75 kts | 348° |
| 2026-05-04 12:12 | -33.94712 | 151.17631 | 23 ft | 20 kts | 7° |
| 2026-05-04 12:12 | -33.94578 | 151.17664 | 24 ft | 18 kts | 14° |
| 2026-05-04 12:12 | -33.94457 | 151.17707 | 24 ft | 18 kts | 18° |
| 2026-05-04 12:12 | -33.94330 | 151.17735 | 22 ft | 20 kts | 348° |
| 2026-05-04 12:13 | -33.94194 | 151.17693 | 21 ft | 20 kts | 345° |
| 2026-05-04 12:14 | -33.93830 | 151.17702 | 20 ft | 10 kts | 15° |
| 2026-05-04 12:15 | -33.93761 | 151.17692 | 21 ft | 10 kts | 348° |
| 2026-05-04 12:15 | -33.93706 | 151.17676 | 27 ft | 6 kts | 340° |
| 2026-05-04 12:15 | -33.93666 | 151.17650 | 29 ft | 8 kts | 330° |
| 2026-05-04 12:15 | -33.93610 | 151.17620 | 28 ft | 9 kts | 344° |
| 2026-05-04 12:16 | -33.93573 | 151.17610 | 28 ft | 1 kts | 348° |
| 2026-05-04 12:16 | -33.93565 | 151.17608 | 28 ft | 2 kts | 348° |
| 2026-05-04 12:16 | -33.93543 | 151.17602 | 28 ft | 4 kts | 347° |
| 2026-05-04 12:16 | -33.93519 | 151.17605 | 29 ft | 1 kts | 34° |
| 2026-05-04 12:17 | -33.93515 | 151.17611 | 30 ft | 3 kts | 50° |
| 2026-05-04 12:17 | -33.93510 | 151.17645 | 30 ft | 4 kts | 93° |
| 2026-05-04 12:17 | -33.93511 | 151.17662 | 30 ft | 2 kts | 96° |
| 2026-05-04 12:17 | -33.93512 | 151.17669 | 30 ft | 0 kts | 96° |
| 2026-05-04 12:18 | -33.93512 | 151.17673 | 30 ft | 0 kts | 96° |